Back to Top

Language: 

My Weather Underground Personal Weather Station Historical Data with Graphs...

Delerius Weather Station Historical Data
Daily Summary for August 4, 2017 Units:  Metric    English   Both
« Previous Day
Next Day »
Daily Weekly Monthly Yearly Custom
  High: Low: Average:
Temperature: 20.2 °C 12.3 °C 16.6 °C
Dew Point: 13.2 °C 8.7 °C 11.3 °C
Humidity: 89 % 51 % 72 %
Wind Speed: 30.6 km/h 3.2 km/h 16.4 km/h
Wind Gust: 46.7 km/h - -
Wind:- - West
Pressure: 1012.4 hPa 1002.9 hPa -
Precipitation: 0 mm    
Historical Graphs
 
 
Tabular Data for August 4, 2017
Time Temperature Dew Point Pressure Wind Wind Speed Wind Gust Humidity Rainfall Rate (Hourly) solar Conditions
00:01 15.2 °C 12.5 °C 1003.3 hPa WSW 9.7 km/h 22.5 km/h 84 % 0 mm 0 W/m2
00:06 15.3 °C 12.6 °C 1003.3 hPa SW 9.7 km/h 22.5 km/h 84 % 0 mm 0 W/m2
00:11 15.3 °C 12.6 °C 1003.3 hPa SW 8 km/h 20.9 km/h 84 % 0 mm 0 W/m2
00:16 15.2 °C 12.5 °C 1003.3 hPa SW 8 km/h 20.9 km/h 84 % 0 mm 0 W/m2
00:18 15.2 °C 12.5 °C 1002.9 hPa SW 9.7 km/h 20.9 km/h 84 % 0 mm 0 W/m2
00:23 15.2 °C 12.5 °C 1003.3 hPa SW 11.3 km/h 24.1 km/h 84 % 0 mm 0 W/m2
00:28 15.2 °C 12.5 °C 1002.9 hPa WSW 14.5 km/h 30.6 km/h 84 % 0 mm 0 W/m2
00:33 15.3 °C 12.6 °C 1003.3 hPa WSW 16.1 km/h 32.2 km/h 84 % 0 mm 0 W/m2
00:38 15.4 °C 12.7 °C 1003.3 hPa WSW 14.5 km/h 32.2 km/h 84 % 0 mm 0 W/m2
00:43 15.5 °C 12.8 °C 1003.3 hPa WSW 12.9 km/h 24.1 km/h 84 % 0 mm 0 W/m2
00:48 15.6 °C 12.9 °C 1003.3 hPa WSW 12.9 km/h 24.1 km/h 84 % 0 mm 0 W/m2
00:53 15.6 °C 12.9 °C 1002.9 hPa SW 12.9 km/h 24.1 km/h 84 % 0 mm 0 W/m2
00:58 15.7 °C 12.8 °C 1002.9 hPa SW 14.5 km/h 25.7 km/h 83 % 0 mm 0 W/m2
01:00 15.7 °C 12.8 °C 1002.9 hPa SW 14.5 km/h 25.7 km/h 83 % 0 mm 0 W/m2
01:05 15.8 °C 12.9 °C 1002.9 hPa SW 17.7 km/h 32.2 km/h 83 % 0 mm 0 W/m2
01:10 15.8 °C 12.9 °C 1002.9 hPa SW 19.3 km/h 33.8 km/h 83 % 0 mm 0 W/m2
01:15 15.8 °C 12.9 °C 1002.9 hPa SW 17.7 km/h 33.8 km/h 83 % 0 mm 0 W/m2
01:20 15.8 °C 12.9 °C 1002.9 hPa SW 14.5 km/h 24.1 km/h 83 % 0 mm 0 W/m2
01:25 15.8 °C 12.9 °C 1002.9 hPa SW 16.1 km/h 32.2 km/h 83 % 0 mm 0 W/m2
01:30 15.8 °C 12.7 °C 1002.9 hPa SW 17.7 km/h 32.2 km/h 82 % 0 mm 0 W/m2
01:35 15.8 °C 12.9 °C 1002.9 hPa WSW 14.5 km/h 30.6 km/h 83 % 0 mm 0 W/m2
01:40 15.8 °C 12.9 °C 1002.9 hPa WSW 12.9 km/h 24.1 km/h 83 % 0 mm 0 W/m2
01:45 15.8 °C 12.9 °C 1002.9 hPa WSW 14.5 km/h 25.7 km/h 83 % 0 mm 0 W/m2
01:50 15.8 °C 12.9 °C 1002.9 hPa WSW 14.5 km/h 25.7 km/h 83 % 0 mm 0 W/m2
01:55 15.8 °C 12.9 °C 1002.9 hPa WSW 12.9 km/h 24.1 km/h 83 % 0 mm 0 W/m2
02:00 15.8 °C 12.9 °C 1002.9 hPa WSW 11.3 km/h 22.5 km/h 83 % 0 mm 0 W/m2
02:05 15.8 °C 12.9 °C 1002.9 hPa WSW 11.3 km/h 22.5 km/h 83 % 0 mm 0 W/m2
02:10 15.9 °C 13 °C 1002.9 hPa WSW 14.5 km/h 29 km/h 83 % 0 mm 0 W/m2
02:15 15.9 °C 13.2 °C 1002.9 hPa WSW 14.5 km/h 29 km/h 84 % 0 mm 0 W/m2
02:20 15.8 °C 13.1 °C 1002.9 hPa WSW 12.9 km/h 24.1 km/h 84 % 0 mm 0 W/m2
02:25 15.7 °C 13.2 °C 1002.9 hPa West 12.9 km/h 20.9 km/h 85 % 0 mm 0 W/m2
02:30 15.6 °C 13.1 °C 1002.9 hPa WSW 14.5 km/h 29 km/h 85 % 0 mm 0 W/m2
02:35 15.6 °C 13.1 °C 1002.9 hPa WSW 16.1 km/h 29 km/h 85 % 0 mm 0 W/m2
02:40 15.6 °C 13.1 °C 1003.3 hPa WSW 14.5 km/h 24.1 km/h 85 % 0 mm 0 W/m2
02:45 15.6 °C 13.1 °C 1003.3 hPa WSW 14.5 km/h 24.1 km/h 85 % 0 mm 0 W/m2
02:48 15.6 °C 13.1 °C 1003.3 hPa WSW 14.5 km/h 24.1 km/h 85 % 0 mm 0 W/m2
02:51 15.6 °C 13.1 °C 1003.3 hPa WSW 12.9 km/h 24.1 km/h 85 % 0 mm 0 W/m2
02:56 15.6 °C 13.1 °C 1003.3 hPa WSW 12.9 km/h 24.1 km/h 85 % 0 mm 0 W/m2
03:01 15.6 °C 13.1 °C 1003.3 hPa WSW 12.9 km/h 24.1 km/h 85 % 0 mm 0 W/m2
03:06 15.6 °C 13.1 °C 1003.3 hPa WSW 11.3 km/h 17.7 km/h 85 % 0 mm 0 W/m2
03:11 15.5 °C 13 °C 1003.6 hPa WSW 11.3 km/h 20.9 km/h 85 % 0 mm 0 W/m2
03:16 15.4 °C 13.1 °C 1003.6 hPa WSW 11.3 km/h 20.9 km/h 86 % 0 mm 0 W/m2
03:21 15.3 °C 12.9 °C 1003.6 hPa West 11.3 km/h 20.9 km/h 86 % 0 mm 0 W/m2
03:27 15.3 °C 13.2 °C 1003.6 hPa WSW 9.7 km/h 17.7 km/h 87 % 0 mm 0 W/m2
03:32 15.3 °C 13.2 °C 1003.6 hPa WSW 11.3 km/h 20.9 km/h 87 % 0 mm 0 W/m2
03:37 15.2 °C 12.9 °C 1003.6 hPa West 12.9 km/h 20.9 km/h 86 % 0 mm 0 W/m2
03:42 15.2 °C 12.9 °C 1003.6 hPa West 11.3 km/h 19.3 km/h 86 % 0 mm 0 W/m2
03:47 15.2 °C 12.9 °C 1003.6 hPa WSW 11.3 km/h 19.3 km/h 86 % 0 mm 0 W/m2
03:52 15.2 °C 12.9 °C 1003.6 hPa WSW 11.3 km/h 19.3 km/h 86 % 0 mm 0 W/m2
03:57 15.2 °C 12.9 °C 1003.6 hPa WSW 11.3 km/h 17.7 km/h 86 % 0 mm 0 W/m2
04:02 15.2 °C 12.7 °C 1003.6 hPa WSW 9.7 km/h 17.7 km/h 85 % 0 mm 0 W/m2
04:07 15.2 °C 12.7 °C 1003.6 hPa WSW 12.9 km/h 38.6 km/h 85 % 0 mm 0 W/m2
04:13 15.3 °C 12.8 °C 1003.6 hPa WSW 14.5 km/h 38.6 km/h 85 % 0 mm 0 W/m2
04:18 15.3 °C 12.8 °C 1003.6 hPa WSW 12.9 km/h 22.5 km/h 85 % 0 mm 0 W/m2
04:20 15.3 °C 12.6 °C 1003.6 hPa WSW 11.3 km/h 20.9 km/h 84 % 0 mm 0 W/m2
04:21 15.2 °C 12.5 °C 1003.6 hPa WSW 9.7 km/h 19.3 km/h 84 % 0 mm 0 W/m2
04:24 15.2 °C 12.5 °C 1003.6 hPa WSW 8 km/h 17.7 km/h 84 % 0 mm 0 W/m2
04:27 15.2 °C 12.7 °C 1003.6 hPa WSW 8 km/h 16.1 km/h 85 % 0 mm 0 W/m2
04:32 15.1 °C 12.4 °C 1003.6 hPa WSW 8 km/h 24.1 km/h 84 % 0 mm 0 W/m2
04:37 15.1 °C 12.2 °C 1003.9 hPa WSW 12.9 km/h 24.1 km/h 83 % 0 mm 0 W/m2
04:42 15.1 °C 12.2 °C 1003.9 hPa WSW 12.9 km/h 22.5 km/h 83 % 0 mm 0 W/m2
04:47 15.1 °C 12.2 °C 1003.9 hPa WSW 11.3 km/h 22.5 km/h 83 % 0 mm 0 W/m2
04:52 15 °C 12.1 °C 1003.6 hPa WSW 11.3 km/h 20.9 km/h 83 % 0 mm 0 W/m2
04:57 14.9 °C 12.1 °C 1003.9 hPa WSW 12.9 km/h 22.5 km/h 83 % 0 mm 0 W/m2
05:02 14.9 °C 12.1 °C 1003.9 hPa WSW 12.9 km/h 22.5 km/h 83 % 0 mm 0 W/m2
05:07 14.8 °C 11.9 °C 1003.9 hPa WSW 14.5 km/h 25.7 km/h 83 % 0 mm 0 W/m2
05:12 14.8 °C 11.9 °C 1003.9 hPa WSW 14.5 km/h 25.7 km/h 83 % 0 mm 0 W/m2
05:17 14.7 °C 11.8 °C 1003.9 hPa West 16.1 km/h 29 km/h 83 % 0 mm 0 W/m2
05:22 14.7 °C 11.8 °C 1003.9 hPa WSW 16.1 km/h 29 km/h 83 % 0 mm 0 W/m2
05:27 14.7 °C 11.8 °C 1003.9 hPa WSW 16.1 km/h 30.6 km/h 83 % 0 mm 0 W/m2
05:32 14.7 °C 11.8 °C 1003.9 hPa WSW 17.7 km/h 35.4 km/h 83 % 0 mm 0 W/m2
05:37 14.8 °C 11.9 °C 1003.9 hPa WSW 19.3 km/h 40.2 km/h 83 % 0 mm 5 W/m2
05:42 14.7 °C 11.8 °C 1003.9 hPa WSW 19.3 km/h 40.2 km/h 83 % 0 mm 7 W/m2
05:47 14.7 °C 11.8 °C 1003.9 hPa WSW 20.9 km/h 40.2 km/h 83 % 0 mm 7 W/m2
05:52 14.7 °C 11.8 °C 1003.9 hPa WSW 20.9 km/h 41.8 km/h 83 % 0 mm 12 W/m2
05:57 14.7 °C 11.8 °C 1003.9 hPa WSW 20.9 km/h 41.8 km/h 83 % 0 mm 12 W/m2
06:02 14.6 °C 11.9 °C 1003.9 hPa WSW 22.5 km/h 37 km/h 84 % 0 mm 14 W/m2
06:07 14.6 °C 11.9 °C 1003.9 hPa WSW 19.3 km/h 37 km/h 84 % 0 mm 19 W/m2
06:12 14.6 °C 11.9 °C 1003.9 hPa West 16.1 km/h 33.8 km/h 84 % 0 mm 23 W/m2
06:17 14.6 °C 11.9 °C 1003.9 hPa West 14.5 km/h 30.6 km/h 84 % 0 mm 35 W/m2
06:22 14.5 °C 11.8 °C 1003.9 hPa West 16.1 km/h 33.8 km/h 84 % 0 mm 39 W/m2
06:27 14.5 °C 11.8 °C 1004.3 hPa WSW 19.3 km/h 33.8 km/h 84 % 0 mm 69 W/m2
06:32 14.6 °C 11.9 °C 1003.9 hPa WSW 20.9 km/h 38.6 km/h 84 % 0 mm 40 W/m2
06:37 14.7 °C 12 °C 1003.9 hPa WSW 20.9 km/h 38.6 km/h 84 % 0 mm 121 W/m2
06:42 14.8 °C 12.1 °C 1003.9 hPa WSW 20.9 km/h 37 km/h 84 % 0 mm 137 W/m2
06:47 14.8 °C 12.1 °C 1003.9 hPa WSW 20.9 km/h 38.6 km/h 84 % 0 mm 130 W/m2
06:52 14.7 °C 12 °C 1003.9 hPa WSW 19.3 km/h 38.6 km/h 84 % 0 mm 33 W/m2
06:57 14.7 °C 12 °C 1003.9 hPa WSW 19.3 km/h 38.6 km/h 84 % 0 mm 97 W/m2
07:02 14.8 °C 12.1 °C 1004.3 hPa WSW 20.9 km/h 38.6 km/h 84 % 0 mm 69 W/m2
07:07 14.8 °C 11.9 °C 1004.3 hPa WSW 20.9 km/h 33.8 km/h 83 % 0 mm 113 W/m2
07:12 15 °C 12.1 °C 1004.3 hPa West 22.5 km/h 38.6 km/h 83 % 0 mm 214 W/m2
07:18 15.1 °C 12.2 °C 1004.3 hPa West 20.9 km/h 38.6 km/h 83 % 0 mm 72 W/m2
07:22 15 °C 12.3 °C 1004.3 hPa WSW 17.7 km/h 33.8 km/h 84 % 0 mm 54 W/m2
07:28 15 °C 12.3 °C 1004.3 hPa WSW 17.7 km/h 35.4 km/h 84 % 0 mm 77 W/m2
07:33 15 °C 12.5 °C 1004.6 hPa WSW 19.3 km/h 35.4 km/h 85 % 0 mm 69 W/m2
07:38 14.9 °C 12.4 °C 1004.6 hPa West 20.9 km/h 35.4 km/h 85 % 0 mm 120 W/m2
07:43 14.9 °C 12.6 °C 1004.6 hPa West 20.9 km/h 37 km/h 86 % 0 mm 111 W/m2
07:48 14.9 °C 12.8 °C 1004.6 hPa WSW 19.3 km/h 37 km/h 87 % 0 mm 58 W/m2
07:53 14.8 °C 12.8 °C 1005 hPa WSW 14.5 km/h 29 km/h 88 % 0 mm 81 W/m2
07:58 14.8 °C 12.8 °C 1005 hPa West 12.9 km/h 25.7 km/h 88 % 0 mm 81 W/m2
08:03 14.8 °C 13 °C 1005 hPa West 12.9 km/h 22.5 km/h 89 % 0 mm 83 W/m2
08:08 14.7 °C 12.9 °C 1005.3 hPa West 12.9 km/h 19.3 km/h 89 % 0 mm 105 W/m2
08:13 14.8 °C 13 °C 1005.3 hPa West 12.9 km/h 20.9 km/h 89 % 0 mm 125 W/m2
08:18 14.9 °C 13.1 °C 1005.3 hPa West 14.5 km/h 24.1 km/h 89 % 0 mm 146 W/m2
08:23 15 °C 13 °C 1005.3 hPa West 12.9 km/h 24.1 km/h 88 % 0 mm 141 W/m2
08:28 15.2 °C 13.1 °C 1005.3 hPa West 14.5 km/h 25.7 km/h 87 % 0 mm 244 W/m2
08:33 15.4 °C 13.1 °C 1005.3 hPa West 17.7 km/h 30.6 km/h 86 % 0 mm 200 W/m2
08:38 15.7 °C 13 °C 1005.3 hPa West 22.5 km/h 43.5 km/h 84 % 0 mm 598 W/m2
08:43 16 °C 12.9 °C 1005.6 hPa West 25.7 km/h 43.5 km/h 82 % 0 mm 281 W/m2
08:48 16.3 °C 13.1 °C 1005.6 hPa West 20.9 km/h 40.2 km/h 81 % 0 mm 341 W/m2
08:53 16.6 °C 12.9 °C 1005.6 hPa WNW 17.7 km/h 33.8 km/h 79 % 0 mm 643 W/m2
08:58 16.6 °C 12.7 °C 1005.6 hPa West 17.7 km/h 37 km/h 78 % 0 mm 172 W/m2
09:03 16.4 °C 12.6 °C 1005.6 hPa West 19.3 km/h 37 km/h 78 % 0 mm 276 W/m2
09:08 16.6 °C 12.7 °C 1005.6 hPa West 17.7 km/h 29 km/h 78 % 0 mm 285 W/m2
09:14 16.7 °C 12.4 °C 1006 hPa WNW 19.3 km/h 33.8 km/h 76 % 0 mm 274 W/m2
09:19 16.8 °C 12.6 °C 1006 hPa WNW 20.9 km/h 38.6 km/h 76 % 0 mm 432 W/m2
09:24 16.8 °C 12.7 °C 1006 hPa WNW 19.3 km/h 38.6 km/h 77 % 0 mm 209 W/m2
09:29 16.8 °C 12.6 °C 1006.3 hPa WNW 20.9 km/h 35.4 km/h 76 % 0 mm 221 W/m2
09:34 16.7 °C 12.7 °C 1006.3 hPa West 20.9 km/h 35.4 km/h 77 % 0 mm 244 W/m2
09:39 16.7 °C 12.7 °C 1006.3 hPa West 19.3 km/h 33.8 km/h 77 % 0 mm 251 W/m2
09:44 16.6 °C 12.7 °C 1006.7 hPa West 17.7 km/h 33.8 km/h 78 % 0 mm 236 W/m2
09:49 16.6 °C 12.7 °C 1006.7 hPa West 17.7 km/h 32.2 km/h 78 % 0 mm 188 W/m2
09:54 16.4 °C 12.6 °C 1006.7 hPa West 19.3 km/h 38.6 km/h 78 % 0 mm 227 W/m2
09:59 16.3 °C 12.8 °C 1006.7 hPa West 17.7 km/h 38.6 km/h 80 % 0 mm 216 W/m2
10:04 16.2 °C 12.7 °C 1006.7 hPa West 16.1 km/h 35.4 km/h 80 % 0 mm 163 W/m2
10:09 16.3 °C 12.8 °C 1007 hPa West 16.1 km/h 32.2 km/h 80 % 0 mm 121 W/m2
10:14 16.1 °C 12.8 °C 1007 hPa West 16.1 km/h 33.8 km/h 81 % 0 mm 156 W/m2
10:19 16 °C 12.9 °C 1007 hPa West 16.1 km/h 32.2 km/h 82 % 0 mm 740 W/m2
10:24 16.5 °C 12.8 °C 1007 hPa WNW 16.1 km/h 33.8 km/h 79 % 0 mm 244 W/m2
10:29 16.7 °C 12.1 °C 1007 hPa WNW 20.9 km/h 38.6 km/h 74 % 0 mm 258 W/m2
10:34 16.8 °C 11.9 °C 1007 hPa WNW 24.1 km/h 38.6 km/h 73 % 0 mm 341 W/m2
10:40 17.1 °C 12.2 °C 1007 hPa West 22.5 km/h 38.6 km/h 73 % 0 mm 503 W/m2
10:44 17.2 °C 12.3 °C 1007 hPa West 20.9 km/h 35.4 km/h 73 % 0 mm 510 W/m2
10:50 17.2 °C 12.1 °C 1007.3 hPa West 20.9 km/h 40.2 km/h 72 % 0 mm 357 W/m2
10:55 17.3 °C 12.2 °C 1007.3 hPa West 20.9 km/h 40.2 km/h 72 % 0 mm 912 W/m2
11:00 17.4 °C 12.1 °C 1007.3 hPa West 20.9 km/h 35.4 km/h 71 % 0 mm 527 W/m2
11:05 17.5 °C 12.4 °C 1007.3 hPa West 20.9 km/h 33.8 km/h 72 % 0 mm 756 W/m2
11:10 17.7 °C 12.4 °C 1007 hPa West 20.9 km/h 35.4 km/h 71 % 0 mm 791 W/m2
11:15 17.9 °C 12.6 °C 1007 hPa West 20.9 km/h 35.4 km/h 71 % 0 mm 798 W/m2
11:20 18.3 °C 12.3 °C 1007.3 hPa West 20.9 km/h 37 km/h 68 % 0 mm 911 W/m2
11:25 18.6 °C 12.6 °C 1007.3 hPa West 22.5 km/h 37 km/h 68 % 0 mm 991 W/m2
11:30 18.7 °C 12.2 °C 1007.3 hPa West 22.5 km/h 41.8 km/h 66 % 0 mm 353 W/m2
11:36 18.4 °C 12.2 °C 1007.3 hPa West 24.1 km/h 41.8 km/h 67 % 0 mm 842 W/m2
11:41 18.5 °C 12.3 °C 1007.3 hPa West 24.1 km/h 40.2 km/h 67 % 0 mm 889 W/m2
11:46 18.7 °C 12.9 °C 1007.3 hPa West 22.5 km/h 40.2 km/h 69 % 0 mm 847 W/m2
11:51 18.8 °C 12.6 °C 1007.3 hPa West 20.9 km/h 41.8 km/h 67 % 0 mm 861 W/m2
11:56 19 °C 12.1 °C 1007.3 hPa West 22.5 km/h 41.8 km/h 64 % 0 mm 838 W/m2
12:01 19.1 °C 12.4 °C 1007.7 hPa West 24.1 km/h 38.6 km/h 65 % 0 mm 849 W/m2
12:06 19.2 °C 12 °C 1007.7 hPa West 22.5 km/h 38.6 km/h 63 % 0 mm 963 W/m2
12:11 19.3 °C 11.6 °C 1007.7 hPa West 24.1 km/h 43.5 km/h 61 % 0 mm 1032 W/m2
12:16 19.1 °C 11.9 °C 1007.7 hPa West 27.4 km/h 46.7 km/h 63 % 0 mm 1032 W/m2
12:21 19.1 °C 12.1 °C 1007.7 hPa West 24.1 km/h 46.7 km/h 64 % 0 mm 900 W/m2
12:26 19.3 °C 11.1 °C 1007.7 hPa West 22.5 km/h 43.5 km/h 59 % 0 mm 867 W/m2
12:31 19.6 °C 11.4 °C 1007.7 hPa WNW 22.5 km/h 43.5 km/h 59 % 0 mm 867 W/m2
12:36 19.5 °C 11.8 °C 1008 hPa West 24.1 km/h 43.5 km/h 61 % 0 mm 234 W/m2
12:41 19.4 °C 11.7 °C 1008 hPa West 27.4 km/h 46.7 km/h 61 % 0 mm 977 W/m2
12:46 19.2 °C 11.5 °C 1008 hPa West 29 km/h 46.7 km/h 61 % 0 mm 881 W/m2
12:51 19.1 °C 11.4 °C 1008 hPa WSW 30.6 km/h 46.7 km/h 61 % 0 mm 905 W/m2
12:56 19.2 °C 11.7 °C 1008 hPa WSW 27.4 km/h 46.7 km/h 62 % 0 mm 933 W/m2
13:01 19.3 °C 11.3 °C 1008 hPa West 24.1 km/h 40.2 km/h 60 % 0 mm 919 W/m2
13:06 19.4 °C 11.2 °C 1008 hPa WNW 24.1 km/h 40.2 km/h 59 % 0 mm 285 W/m2
13:11 19.1 °C 11.4 °C 1008.4 hPa WNW 24.1 km/h 40.2 km/h 61 % 0 mm 209 W/m2
13:16 18.7 °C 11.5 °C 1008.4 hPa West 22.5 km/h 40.2 km/h 63 % 0 mm 891 W/m2
13:21 18.9 °C 11.7 °C 1008.4 hPa West 22.5 km/h 38.6 km/h 63 % 0 mm 1009 W/m2
13:26 19 °C 11.6 °C 1008.4 hPa West 22.5 km/h 43.5 km/h 62 % 0 mm 202 W/m2
13:31 19.3 °C 12.1 °C 1008.4 hPa West 20.9 km/h 43.5 km/h 63 % 0 mm 858 W/m2
13:36 19.4 °C 11.7 °C 1008.4 hPa West 20.9 km/h 40.2 km/h 61 % 0 mm 200 W/m2
13:37 19.4 °C 11.7 °C 1008.4 hPa West 22.5 km/h 40.2 km/h 61 % 0 mm 200 W/m2
13:42 19.3 °C 11.3 °C 1008.7 hPa West 24.1 km/h 40.2 km/h 60 % 0 mm 875 W/m2
13:47 19.4 °C 11.7 °C 1008.7 hPa West 24.1 km/h 41.8 km/h 61 % 0 mm 951 W/m2
13:52 19.3 °C 11.1 °C 1008.7 hPa West 25.7 km/h 41.8 km/h 59 % 0 mm 865 W/m2
13:57 19.6 °C 11.4 °C 1008.7 hPa West 24.1 km/h 43.5 km/h 59 % 0 mm 914 W/m2
14:02 19.7 °C 10.9 °C 1008.7 hPa West 25.7 km/h 43.5 km/h 57 % 0 mm 914 W/m2
14:07 19.9 °C 11.1 °C 1008.7 hPa West 27.4 km/h 43.5 km/h 57 % 0 mm 921 W/m2
14:12 20.1 °C 11.3 °C 1008.7 hPa West 25.7 km/h 43.5 km/h 57 % 0 mm 907 W/m2
14:13 20.1 °C 11.3 °C 1008.7 hPa West 25.7 km/h 43.5 km/h 57 % 0 mm 907 W/m2
14:18 20.2 °C 11.4 °C 1008.7 hPa West 24.1 km/h 38.6 km/h 57 % 0 mm 988 W/m2
14:23 20.2 °C 10.6 °C 1008.7 hPa WSW 27.4 km/h 45.1 km/h 54 % 0 mm 928 W/m2
14:28 20.1 °C 10.5 °C 1009 hPa West 27.4 km/h 45.1 km/h 54 % 0 mm 861 W/m2
14:33 19.8 °C 10.8 °C 1009 hPa West 24.1 km/h 41.8 km/h 56 % 0 mm 870 W/m2
14:38 19.8 °C 10.8 °C 1009 hPa West 25.7 km/h 41.8 km/h 56 % 0 mm 313 W/m2
14:43 19.6 °C 10.6 °C 1009 hPa WSW 24.1 km/h 40.2 km/h 56 % 0 mm 861 W/m2
14:48 19.7 °C 10.4 °C 1009 hPa West 24.1 km/h 45.1 km/h 55 % 0 mm 909 W/m2
14:53 19.6 °C 10.1 °C 1009.4 hPa West 25.7 km/h 45.1 km/h 54 % 0 mm 213 W/m2
14:58 19.3 °C 10.3 °C 1009.4 hPa West 24.1 km/h 40.2 km/h 56 % 0 mm 322 W/m2
15:03 19.4 °C 10.4 °C 1009.4 hPa West 17.7 km/h 40.2 km/h 56 % 0 mm 902 W/m2
15:08 19.6 °C 10.6 °C 1009.4 hPa WNW 19.3 km/h 43.5 km/h 56 % 0 mm 898 W/m2
15:13 19.8 °C 10.5 °C 1009.4 hPa WNW 22.5 km/h 43.5 km/h 55 % 0 mm 882 W/m2
15:18 19.8 °C 10.5 °C 1009.4 hPa WNW 22.5 km/h 35.4 km/h 55 % 0 mm 204 W/m2
15:23 19.7 °C 10.4 °C 1009.4 hPa WNW 20.9 km/h 33.8 km/h 55 % 0 mm 234 W/m2
15:28 19.6 °C 10.6 °C 1009.4 hPa WNW 20.9 km/h 35.4 km/h 56 % 0 mm 680 W/m2
15:33 19.7 °C 9.8 °C 1009.4 hPa WNW 20.9 km/h 35.4 km/h 53 % 0 mm 726 W/m2
15:38 19.7 °C 9.6 °C 1009.4 hPa WNW 22.5 km/h 43.5 km/h 52 % 0 mm 246 W/m2
15:43 19.3 °C 9.8 °C 1009.7 hPa West 20.9 km/h 43.5 km/h 54 % 0 mm 345 W/m2
15:48 19.4 °C 10.1 °C 1009.7 hPa West 22.5 km/h 37 km/h 55 % 0 mm 868 W/m2
15:53 19.3 °C 9.8 °C 1009.7 hPa West 24.1 km/h 43.5 km/h 54 % 0 mm 251 W/m2
15:58 19.2 °C 10.2 °C 1009.7 hPa West 25.7 km/h 43.5 km/h 56 % 0 mm 722 W/m2
16:03 19.4 °C 10.1 °C 1009.7 hPa West 22.5 km/h 40.2 km/h 55 % 0 mm 719 W/m2
16:08 19.4 °C 10.1 °C 1009.7 hPa West 20.9 km/h 35.4 km/h 55 % 0 mm 710 W/m2
16:13 19.7 °C 9.8 °C 1009.7 hPa West 22.5 km/h 40.2 km/h 53 % 0 mm 691 W/m2
16:18 19.9 °C 10.1 °C 1009.7 hPa West 22.5 km/h 40.2 km/h 53 % 0 mm 671 W/m2
16:23 19.9 °C 10.1 °C 1010 hPa West 22.5 km/h 41.8 km/h 53 % 0 mm 116 W/m2
16:28 19.7 °C 10.7 °C 1010 hPa WNW 22.5 km/h 41.8 km/h 56 % 0 mm 742 W/m2
16:33 19.6 °C 10.1 °C 1010 hPa West 19.3 km/h 37 km/h 54 % 0 mm 162 W/m2
16:38 19.4 °C 10.4 °C 1010 hPa West 17.7 km/h 37 km/h 56 % 0 mm 645 W/m2
16:43 19.6 °C 9.8 °C 1010 hPa West 17.7 km/h 35.4 km/h 53 % 0 mm 338 W/m2
16:48 19.4 °C 9.3 °C 1010 hPa West 20.9 km/h 35.4 km/h 52 % 0 mm 668 W/m2
16:53 19.4 °C 9.8 °C 1010 hPa West 22.5 km/h 35.4 km/h 54 % 0 mm 659 W/m2
16:58 19.3 °C 9.5 °C 1010 hPa West 22.5 km/h 35.4 km/h 53 % 0 mm 649 W/m2
17:03 19.3 °C 9.8 °C 1010 hPa West 22.5 km/h 35.4 km/h 54 % 0 mm 216 W/m2
17:08 19 °C 9.8 °C 1010 hPa West 20.9 km/h 33.8 km/h 55 % 0 mm 221 W/m2
17:13 18.9 °C 9.7 °C 1010.4 hPa West 20.9 km/h 38.6 km/h 55 % 0 mm 237 W/m2
17:18 19 °C 9.8 °C 1010 hPa West 20.9 km/h 38.6 km/h 55 % 0 mm 174 W/m2
17:23 19.2 °C 9.9 °C 1010 hPa West 19.3 km/h 35.4 km/h 55 % 0 mm 659 W/m2
17:28 19.3 °C 9.2 °C 1010.4 hPa West 20.9 km/h 37 km/h 52 % 0 mm 624 W/m2
17:33 19.4 °C 9.6 °C 1010.4 hPa West 22.5 km/h 37 km/h 53 % 0 mm 555 W/m2
17:38 19.6 °C 9.4 °C 1010.4 hPa West 20.9 km/h 32.2 km/h 52 % 0 mm 490 W/m2
17:43 19.6 °C 9.4 °C 1010.4 hPa West 19.3 km/h 32.2 km/h 52 % 0 mm 439 W/m2
17:48 19.4 °C 9 °C 1010.4 hPa West 19.3 km/h 35.4 km/h 51 % 0 mm 462 W/m2
17:49 19.3 °C 8.9 °C 1010.4 hPa West 19.3 km/h 35.4 km/h 51 % 0 mm 462 W/m2
17:54 19.4 °C 9.3 °C 1010.4 hPa West 19.3 km/h 35.4 km/h 52 % 0 mm 438 W/m2
17:59 19.4 °C 9 °C 1010.4 hPa West 16.1 km/h 30.6 km/h 51 % 0 mm 302 W/m2
18:04 19.3 °C 9.2 °C 1010.4 hPa West 16.1 km/h 30.6 km/h 52 % 0 mm 418 W/m2
18:09 19.5 °C 9.1 °C 1010.4 hPa West 16.1 km/h 30.6 km/h 51 % 0 mm 378 W/m2
18:14 19.1 °C 8.7 °C 1010.4 hPa West 19.3 km/h 33.8 km/h 51 % 0 mm 415 W/m2
18:19 19 °C 8.9 °C 1010.4 hPa West 19.3 km/h 33.8 km/h 52 % 0 mm 364 W/m2
18:24 19.1 °C 9.3 °C 1010.4 hPa West 20.9 km/h 32.2 km/h 53 % 0 mm 334 W/m2
18:29 19 °C 8.9 °C 1010.7 hPa West 19.3 km/h 32.2 km/h 52 % 0 mm 315 W/m2
18:34 18.9 °C 9.4 °C 1010.7 hPa West 16.1 km/h 32.2 km/h 54 % 0 mm 299 W/m2
18:39 18.9 °C 9.4 °C 1010.7 hPa West 14.5 km/h 25.7 km/h 54 % 0 mm 299 W/m2
18:44 18.8 °C 9.3 °C 1010.7 hPa West 17.7 km/h 33.8 km/h 54 % 0 mm 294 W/m2
18:49 18.7 °C 9.4 °C 1010.7 hPa West 17.7 km/h 33.8 km/h 55 % 0 mm 265 W/m2
18:54 18.6 °C 9.4 °C 1010.7 hPa West 17.7 km/h 30.6 km/h 55 % 0 mm 241 W/m2
18:59 18.6 °C 9.7 °C 1010.7 hPa West 16.1 km/h 25.7 km/h 56 % 0 mm 229 W/m2
19:04 18.6 °C 9.9 °C 1010.7 hPa West 16.1 km/h 25.7 km/h 57 % 0 mm 213 W/m2
19:09 18.6 °C 9.9 °C 1010.7 hPa WNW 16.1 km/h 30.6 km/h 57 % 0 mm 211 W/m2
19:14 18.4 °C 9.7 °C 1010.7 hPa WNW 16.1 km/h 30.6 km/h 57 % 0 mm 190 W/m2
19:17 18.4 °C 9.7 °C 1010.7 hPa WNW 16.1 km/h 30.6 km/h 57 % 0 mm 186 W/m2
19:22 18.3 °C 9.4 °C 1011.1 hPa WNW 16.1 km/h 29 km/h 56 % 0 mm 114 W/m2
19:27 17.9 °C 9.5 °C 1011.1 hPa WNW 19.3 km/h 32.2 km/h 58 % 0 mm 130 W/m2
19:32 17.7 °C 9.6 °C 1011.1 hPa WNW 19.3 km/h 32.2 km/h 59 % 0 mm 98 W/m2
19:37 17.6 °C 9.7 °C 1011.1 hPa WNW 16.1 km/h 29 km/h 60 % 0 mm 135 W/m2
19:42 17.6 °C 9.7 °C 1011.1 hPa WNW 14.5 km/h 25.7 km/h 60 % 0 mm 120 W/m2
19:47 17.5 °C 9.7 °C 1011.1 hPa West 14.5 km/h 25.7 km/h 60 % 0 mm 111 W/m2
19:52 17.4 °C 9.8 °C 1011.1 hPa West 14.5 km/h 25.7 km/h 61 % 0 mm 88 W/m2
19:57 17.2 °C 9.6 °C 1011.4 hPa West 14.5 km/h 25.7 km/h 61 % 0 mm 72 W/m2
20:02 17 °C 9.4 °C 1011.4 hPa WNW 17.7 km/h 30.6 km/h 61 % 0 mm 32 W/m2
20:07 16.8 °C 9.5 °C 1011.4 hPa WNW 16.1 km/h 30.6 km/h 62 % 0 mm 26 W/m2
20:12 16.7 °C 9.6 °C 1011.4 hPa WNW 12.9 km/h 20.9 km/h 63 % 0 mm 28 W/m2
20:17 16.4 °C 9.6 °C 1011.4 hPa West 12.9 km/h 22.5 km/h 64 % 0 mm 18 W/m2
20:22 16.3 °C 9.7 °C 1011.7 hPa West 12.9 km/h 22.5 km/h 65 % 0 mm 14 W/m2
20:28 16.1 °C 9.5 °C 1011.7 hPa WNW 11.3 km/h 20.9 km/h 65 % 0 mm 12 W/m2
20:33 16 °C 9.7 °C 1011.7 hPa West 11.3 km/h 19.3 km/h 66 % 0 mm 11 W/m2
20:38 15.8 °C 9.4 °C 1011.7 hPa WNW 9.7 km/h 17.7 km/h 66 % 0 mm 11 W/m2
20:43 15.7 °C 9.6 °C 1012.1 hPa WNW 9.7 km/h 16.1 km/h 67 % 0 mm 9 W/m2
20:48 15.6 °C 9.7 °C 1012.1 hPa WNW 9.7 km/h 16.1 km/h 68 % 0 mm 7 W/m2
20:53 15.4 °C 9.5 °C 1012.1 hPa WNW 8 km/h 14.5 km/h 68 % 0 mm 5 W/m2
20:58 15.3 °C 9.7 °C 1012.1 hPa WNW 8 km/h 14.5 km/h 69 % 0 mm 0 W/m2
21:03 15.2 °C 9.6 °C 1012.1 hPa WNW 8 km/h 14.5 km/h 69 % 0 mm 0 W/m2
21:08 15.1 °C 9.7 °C 1012.1 hPa WNW 8 km/h 14.5 km/h 70 % 0 mm 0 W/m2
21:13 14.9 °C 9.5 °C 1012.1 hPa WNW 8 km/h 14.5 km/h 70 % 0 mm 0 W/m2
21:18 14.8 °C 9.4 °C 1012.1 hPa WNW 6.4 km/h 14.5 km/h 70 % 0 mm 0 W/m2
21:23 14.7 °C 9.5 °C 1012.1 hPa West 4.8 km/h 12.9 km/h 71 % 0 mm 0 W/m2
21:28 14.5 °C 9.5 °C 1012.1 hPa West 4.8 km/h 11.3 km/h 72 % 0 mm 0 W/m2
21:33 14.4 °C 9.4 °C 1012.1 hPa West 4.8 km/h 9.7 km/h 72 % 0 mm 0 W/m2
21:38 14.2 °C 9.4 °C 1012.4 hPa WNW 4.8 km/h 9.7 km/h 73 % 0 mm 0 W/m2
21:43 14.1 °C 9.6 °C 1012.4 hPa WNW 6.4 km/h 11.3 km/h 74 % 0 mm 0 W/m2
21:48 13.9 °C 9.3 °C 1012.1 hPa WNW 4.8 km/h 11.3 km/h 74 % 0 mm 0 W/m2
21:53 13.8 °C 9.4 °C 1012.4 hPa WNW 3.2 km/h 9.7 km/h 75 % 0 mm 0 W/m2
21:58 13.7 °C 9.3 °C 1012.4 hPa West 3.2 km/h 9.7 km/h 75 % 0 mm 0 W/m2
22:04 13.6 °C 9.2 °C 1012.4 hPa West 3.2 km/h 9.7 km/h 75 % 0 mm 0 W/m2
22:09 13.6 °C 9.4 °C 1012.4 hPa West 3.2 km/h 9.7 km/h 76 % 0 mm 0 W/m2
22:14 13.5 °C 9.6 °C 1012.4 hPa WNW 4.8 km/h 12.9 km/h 77 % 0 mm 0 W/m2
22:19 13.4 °C 9.4 °C 1012.4 hPa WNW 4.8 km/h 12.9 km/h 77 % 0 mm 0 W/m2
22:24 13.4 °C 9.7 °C 1012.4 hPa WNW 3.2 km/h 11.3 km/h 78 % 0 mm 0 W/m2
22:25 13.3 °C 9.6 °C 1012.4 hPa WNW 3.2 km/h 9.7 km/h 78 % 0 mm 0 W/m2
22:30 13.3 °C 9.6 °C 1012.4 hPa WNW 3.2 km/h 9.7 km/h 78 % 0 mm 0 W/m2
22:33 13.3 °C 9.7 °C 1012.4 hPa WNW 3.2 km/h 9.7 km/h 79 % 0 mm 0 W/m2
22:38 13.2 °C 9.6 °C 1012.4 hPa WNW 4.8 km/h 9.7 km/h 79 % 0 mm 0 W/m2
22:43 13.2 °C 9.6 °C 1012.4 hPa West 4.8 km/h 12.9 km/h 79 % 0 mm 0 W/m2
22:48 13.2 °C 9.8 °C 1012.4 hPa West 3.2 km/h 12.9 km/h 80 % 0 mm 0 W/m2
22:53 13.1 °C 9.7 °C 1012.4 hPa West 3.2 km/h 8 km/h 80 % 0 mm 0 W/m2
22:58 13.1 °C 9.7 °C 1012.4 hPa West 3.2 km/h 8 km/h 80 % 0 mm 0 W/m2
23:03 12.9 °C 9.7 °C 1012.4 hPa WNW 3.2 km/h 11.3 km/h 81 % 0 mm 0 W/m2
23:08 12.9 °C 9.9 °C 1012.4 hPa WNW 4.8 km/h 11.3 km/h 82 % 0 mm 0 W/m2
23:13 12.8 °C 9.8 °C 1012.4 hPa WNW 4.8 km/h 11.3 km/h 82 % 0 mm 0 W/m2
23:18 12.7 °C 9.7 °C 1012.4 hPa WNW 6.4 km/h 16.1 km/h 82 % 0 mm 0 W/m2
23:23 12.7 °C 9.9 °C 1012.4 hPa WNW 8 km/h 16.1 km/h 83 % 0 mm 0 W/m2
23:28 12.6 °C 9.8 °C 1012.4 hPa WNW 6.4 km/h 12.9 km/h 83 % 0 mm 0 W/m2
23:33 12.6 °C 9.8 °C 1012.4 hPa WNW 6.4 km/h 11.3 km/h 83 % 0 mm 0 W/m2
23:38 12.5 °C 9.9 °C 1012.4 hPa WNW 4.8 km/h 11.3 km/h 84 % 0 mm 0 W/m2
23:43 12.5 °C 9.9 °C 1012.4 hPa WNW 6.4 km/h 12.9 km/h 84 % 0 mm 0 W/m2
23:48 12.4 °C 9.9 °C 1012.4 hPa WNW 6.4 km/h 12.9 km/h 85 % 0 mm 0 W/m2
23:53 12.4 °C 9.9 °C 1012.4 hPa WNW 6.4 km/h 11.3 km/h 85 % 0 mm 0 W/m2
23:58 12.3 °C 9.8 °C 1012.4 hPa WNW 6.4 km/h 11.3 km/h 85 % 0 mm 0 W/m2
Delerius-Weather
Compliments of Weather Underground - 2.25 mb

Data updates at regular intervals.